Time;durP1;ratioP1;P1;durP2;ratioP2;P2;SDS_P1;SDS_P2;PMS_P1;PMS_P2;Temp;Humidity;BMP_temperature;BMP_pressure;BME280_temperature;BME280_humidity;BME280_pressure;Samples;Min_cycle;Max_cycle;Signal;HPM_P1;HPM_P2
2020/12/06 00:01:57;;;;;;;19.27;17.37;;;4.00;94.60;;;;;;5060845;28;20200;-89
2020/12/06 00:04:27;;;;;;;18.93;16.20;;;4.10;94.90;;;;;;5078639;28;20211;-89
2020/12/06 00:06:53;;;;;;;19.47;16.97;;;3.90;95.40;;;;;;5065860;28;20250;-89
2020/12/06 00:09:18;;;;;;;20.23;18.03;;;3.90;96.10;;;;;;5068409;28;20188;-89
2020/12/06 00:11:44;;;;;;;20.83;18.60;;;3.80;96.20;;;;;;5063817;28;20196;-89
2020/12/06 00:14:10;;;;;;;19.93;16.83;;;3.90;96.30;;;;;;5045303;28;20603;-89
2020/12/06 00:16:36;;;;;;;21.40;18.23;;;4.00;96.10;;;;;;5047765;28;20218;-89
2020/12/06 00:19:02;;;;;;;22.23;18.87;;;4.00;96.50;;;;;;5035016;28;20276;-89
2020/12/06 00:21:28;;;;;;;20.13;17.60;;;4.00;95.60;;;;;;5034321;28;20204;-89
2020/12/06 00:23:54;;;;;;;21.17;18.07;;;4.10;95.50;;;;;;5050337;28;20212;-89
2020/12/06 00:26:24;;;;;;;20.13;18.03;;;4.00;95.80;;;;;;5033123;28;20282;-88
2020/12/06 00:28:50;;;;;;;22.23;18.47;;;4.00;96.00;;;;;;5049959;28;20168;-89
2020/12/06 00:31:16;;;;;;;22.97;18.23;;;4.00;95.80;;;;;;5050037;28;20234;-89
2020/12/06 00:33:42;;;;;;;21.03;18.10;;;4.00;95.90;;;;;;5049497;28;20208;-89
2020/12/06 00:36:13;;;;;;;20.40;17.37;;;4.00;95.90;;;;;;5067651;28;20230;-89
2020/12/06 00:38:40;;;;;;;20.10;17.87;;;3.90;96.10;;;;;;5067762;28;20164;-89
2020/12/06 00:41:10;;;;;;;20.83;17.20;;;4.00;96.30;;;;;;5067204;28;20204;-89
2020/12/06 00:43:36;;;;;;;19.17;17.17;;;4.00;96.30;;;;;;5067554;28;20574;-89
2020/12/06 00:46:02;;;;;;;22.13;18.67;;;4.00;96.50;;;;;;5067365;28;20196;-89
2020/12/06 00:48:28;;;;;;;19.90;17.67;;;4.00;96.30;;;;;;5067602;28;20211;-89
2020/12/06 00:50:53;;;;;;;23.37;18.57;;;4.00;96.30;;;;;;5016897;28;20763;-90
2020/12/06 00:53:19;;;;;;;22.00;18.83;;;4.00;96.60;;;;;;5054879;28;20187;-89
2020/12/06 00:55:45;;;;;;;22.27;18.63;;;4.00;96.60;;;;;;5083951;28;20267;-89
2020/12/06 00:58:10;;;;;;;21.77;18.87;;;3.90;96.50;;;;;;5030687;28;20184;-90
2020/12/06 01:00:36;;;;;;;20.80;18.13;;;3.90;96.60;;;;;;5032783;28;20209;-91
2020/12/06 01:03:02;;;;;;;21.57;18.93;;;3.80;97.20;;;;;;5049017;28;20280;-90
2020/12/06 01:05:28;;;;;;;21.43;18.90;;;3.80;97.60;;;;;;5048900;28;20393;-90
2020/12/06 01:07:54;;;;;;;23.80;18.83;;;3.80;97.40;;;;;;5048662;28;20664;-90
2020/12/06 01:10:19;;;;;;;22.00;19.20;;;3.90;97.10;;;;;;5048682;28;20300;-90
2020/12/06 01:12:45;;;;;;;26.30;20.10;;;3.90;97.10;;;;;;5048211;28;20177;-90
2020/12/06 01:15:11;;;;;;;21.77;18.87;;;3.90;96.70;;;;;;5044359;28;20184;-90
2020/12/06 01:17:37;;;;;;;26.10;20.67;;;3.90;96.60;;;;;;5069845;28;20173;-91
2020/12/06 01:20:05;;;;;;;22.83;19.67;;;3.90;96.70;;;;;;5052391;28;20192;-89
2020/12/06 01:22:31;;;;;;;23.37;19.37;;;3.90;96.60;;;;;;5069450;28;20207;-90
2020/12/06 01:24:57;;;;;;;21.70;18.90;;;3.90;96.60;;;;;;5069820;28;20174;-90
2020/12/06 01:27:23;;;;;;;24.03;19.57;;;3.90;97.00;;;;;;5022945;28;20179;-90
2020/12/06 01:29:49;;;;;;;24.30;20.93;;;4.00;96.60;;;;;;5080275;28;20172;-91
2020/12/06 01:32:14;;;;;;;24.43;20.30;;;4.00;96.80;;;;;;5053741;28;20204;-89
2020/12/06 01:34:40;;;;;;;22.60;19.27;;;4.00;96.30;;;;;;5051890;28;20184;-90
2020/12/06 01:37:06;;;;;;;21.63;19.07;;;4.10;95.90;;;;;;5062246;28;20179;-91
2020/12/06 01:39:32;;;;;;;25.60;20.50;;;4.10;95.30;;;;;;5080162;28;20157;-90
2020/12/06 01:41:58;;;;;;;23.63;18.97;;;4.00;96.30;;;;;;5070525;28;20208;-90
2020/12/06 01:44:26;;;;;;;23.97;20.90;;;4.00;96.00;;;;;;5051412;28;20204;-89
2020/12/06 01:46:53;;;;;;;27.30;21.67;;;4.00;96.00;;;;;;5034786;28;20187;-89
2020/12/06 01:49:35;;;;;;;22.57;18.37;;;4.00;96.50;;;;;;5034526;28;20196;-90
2020/12/06 01:52:04;;;;;;;22.60;18.30;;;3.90;96.80;;;;;;5051105;28;20200;-90
2020/12/06 01:54:29;;;;;;;22.77;18.73;;;3.90;97.00;;;;;;5069354;28;20271;-90
2020/12/06 01:56:55;;;;;;;21.20;18.90;;;4.00;97.20;;;;;;5029487;28;20216;-90
2020/12/06 01:59:21;;;;;;;24.70;20.10;;;4.00;96.50;;;;;;5064145;28;20188;-90
2020/12/06 02:02:06;;;;;;;24.17;19.97;;;4.00;97.00;;;;;;5064098;28;20253;-90
2020/12/06 02:04:33;;;;;;;21.17;17.53;;;4.10;96.00;;;;;;5065456;28;20165;-90
2020/12/06 02:07:00;;;;;;;20.70;17.93;;;4.10;96.40;;;;;;5066466;28;20690;-90
2020/12/06 02:09:30;;;;;;;21.77;17.37;;;4.10;95.10;;;;;;5032264;28;20200;-90
2020/12/06 02:11:56;;;;;;;21.67;17.43;;;4.10;95.50;;;;;;5066263;28;20279;-89
2020/12/06 02:14:22;;;;;;;20.27;17.27;;;4.20;95.00;;;;;;5048338;28;20184;-89
2020/12/06 02:16:47;;;;;;;20.87;17.50;;;4.20;94.40;;;;;;5048572;28;20184;-89
2020/12/06 02:19:14;;;;;;;19.23;17.03;;;4.20;94.20;;;;;;5048868;28;20214;-89
2020/12/06 02:21:41;;;;;;;20.17;16.67;;;4.10;94.30;;;;;;5049641;28;20895;-90
2020/12/06 02:24:08;;;;;;;18.57;15.70;;;4.20;94.70;;;;;;5050776;28;20572;-90
2020/12/06 02:26:49;;;;;;;20.93;17.60;;;4.20;94.90;;;;;;5030535;28;20283;-90
2020/12/06 02:29:15;;;;;;;21.17;16.97;;;4.30;94.10;;;;;;5045998;28;20529;-89
2020/12/06 02:31:41;;;;;;;20.27;16.93;;;4.20;94.30;;;;;;5045677;28;20212;-89
2020/12/06 02:34:08;;;;;;;20.13;17.73;;;4.30;94.20;;;;;;5048910;28;20310;-90
2020/12/06 02:36:34;;;;;;;21.87;17.93;;;4.20;94.30;;;;;;5032353;28;20215;-89
2020/12/06 02:39:00;;;;;;;21.17;18.57;;;4.30;94.20;;;;;;5048691;28;20189;-89
2020/12/06 02:41:41;;;;;;;21.17;17.17;;;4.30;94.90;;;;;;5016434;28;20215;-89
2020/12/06 02:44:07;;;;;;;20.10;17.03;;;4.30;94.50;;;;;;5066170;28;20253;-89
2020/12/06 02:46:34;;;;;;;19.00;16.37;;;4.30;94.70;;;;;;5048634;28;20184;-89
2020/12/06 02:49:00;;;;;;;19.93;15.67;;;4.30;94.50;;;;;;5048587;28;20483;-90
2020/12/06 02:51:26;;;;;;;18.60;15.80;;;4.30;95.20;;;;;;5066300;28;20268;-89
2020/12/06 02:53:52;;;;;;;21.13;17.10;;;4.40;95.40;;;;;;5066043;28;20188;-89
2020/12/06 02:56:18;;;;;;;18.97;16.97;;;4.50;94.70;;;;;;5032085;28;20226;-90
2020/12/06 02:58:44;;;;;;;18.53;16.53;;;4.50;94.50;;;;;;5065720;28;20247;-90
2020/12/06 03:01:10;;;;;;;19.33;17.23;;;4.50;94.50;;;;;;5031989;28;20807;-90
2020/12/06 03:03:35;;;;;;;20.07;17.93;;;4.50;94.40;;;;;;5048010;28;20279;-89
2020/12/06 03:06:01;;;;;;;20.20;17.50;;;4.50;94.50;;;;;;5048084;28;20188;-89
2020/12/06 03:08:29;;;;;;;18.57;16.57;;;4.50;94.60;;;;;;5065676;28;20176;-89
2020/12/06 03:10:54;;;;;;;22.77;18.50;;;4.50;94.50;;;;;;5048652;28;20207;-90
2020/12/06 03:13:20;;;;;;;22.37;18.40;;;4.50;94.20;;;;;;5046896;28;20214;-89
2020/12/06 03:15:46;;;;;;;20.13;17.97;;;4.50;93.90;;;;;;5047771;28;20188;-90
2020/12/06 03:18:12;;;;;;;21.33;18.27;;;4.40;94.00;;;;;;5047826;28;20191;-89
2020/12/06 03:20:38;;;;;;;22.27;18.73;;;4.40;94.30;;;;;;5047510;28;20219;-90
2020/12/06 03:23:04;;;;;;;19.80;17.63;;;4.50;94.20;;;;;;5047592;28;20207;-90
2020/12/06 03:25:30;;;;;;;22.73;18.20;;;4.50;94.40;;;;;;5065724;28;20203;-90
2020/12/06 03:27:56;;;;;;;22.60;19.40;;;4.50;93.90;;;;;;5065651;28;20187;-89
2020/12/06 03:30:21;;;;;;;21.10;18.07;;;4.50;94.10;;;;;;5048314;28;20214;-90
2020/12/06 03:32:47;;;;;;;24.03;19.40;;;4.50;94.40;;;;;;5048037;28;20193;-90
2020/12/06 03:35:13;;;;;;;23.13;19.50;;;4.40;94.60;;;;;;5065570;28;20204;-89
2020/12/06 03:37:39;;;;;;;24.37;20.23;;;4.40;94.30;;;;;;5065102;28;20184;-90
2020/12/06 03:40:05;;;;;;;23.63;20.47;;;4.40;94.50;;;;;;5047621;28;20188;-90
2020/12/06 03:42:30;;;;;;;26.17;21.47;;;4.30;95.40;;;;;;5047583;28;20591;-90
2020/12/06 03:44:56;;;;;;;22.90;19.17;;;4.30;95.00;;;;;;5048155;28;20195;-90
2020/12/06 03:47:21;;;;;;;27.07;20.93;;;4.30;94.80;;;;;;5047927;28;20241;-90
2020/12/06 03:49:47;;;;;;;23.13;20.00;;;4.30;94.90;;;;;;5032177;28;20228;-90
2020/12/06 03:52:13;;;;;;;24.03;19.07;;;4.40;94.10;;;;;;5053281;28;20207;-91
2020/12/06 03:54:39;;;;;;;26.23;21.73;;;4.40;94.20;;;;;;5053369;28;20210;-90
2020/12/06 03:57:04;;;;;;;25.67;21.73;;;4.40;94.10;;;;;;5053444;28;20188;-90
2020/12/06 03:59:30;;;;;;;26.17;21.50;;;4.40;93.80;;;;;;5036507;28;20203;-90
2020/12/06 04:01:56;;;;;;;25.00;20.83;;;4.40;93.80;;;;;;5070930;28;20264;-90
2020/12/06 04:04:22;;;;;;;22.93;20.10;;;4.40;94.10;;;;;;5032281;28;20299;-90
2020/12/06 04:06:47;;;;;;;24.30;20.00;;;4.40;93.80;;;;;;5065275;28;20570;-90
2020/12/06 04:09:13;;;;;;;26.70;22.00;;;4.40;94.00;;;;;;5062884;28;20247;-89
2020/12/06 04:11:39;;;;;;;30.53;22.43;;;4.50;93.90;;;;;;5062178;28;20200;-90
2020/12/06 04:14:04;;;;;;;28.90;22.80;;;4.50;93.80;;;;;;5049037;28;20187;-90
2020/12/06 04:16:30;;;;;;;23.87;21.13;;;4.50;93.60;;;;;;5071512;28;20180;-90
2020/12/06 04:18:56;;;;;;;24.57;19.43;;;4.40;94.50;;;;;;5064106;28;20191;-90
2020/12/06 04:21:21;;;;;;;22.87;20.20;;;4.50;93.60;;;;;;5058902;28;20201;-90
2020/12/06 04:23:47;;;;;;;26.90;21.40;;;4.60;93.30;;;;;;5065433;28;20268;-90
2020/12/06 04:26:13;;;;;;;23.83;19.87;;;4.50;93.60;;;;;;5064253;28;20187;-90
2020/12/06 04:28:38;;;;;;;22.90;18.00;;;4.50;93.80;;;;;;5065544;28;20177;-90
2020/12/06 04:31:04;;;;;;;25.03;20.73;;;4.50;93.30;;;;;;5066407;28;20196;-90
2020/12/06 04:33:30;;;;;;;28.30;22.83;;;4.50;93.40;;;;;;5065020;28;20184;-90
2020/12/06 04:35:55;;;;;;;28.20;21.47;;;4.50;93.60;;;;;;5065081;28;20684;-90
2020/12/06 04:38:21;;;;;;;24.03;20.30;;;4.50;93.60;;;;;;5046277;28;20184;-90
2020/12/06 04:40:47;;;;;;;22.37;18.70;;;4.40;94.50;;;;;;5064771;28;20201;-90
2020/12/06 04:43:18;;;;;;;25.43;21.70;;;4.40;94.60;;;;;;5046675;28;20212;-90
2020/12/06 04:45:45;;;;;;;25.50;21.07;;;4.50;93.60;;;;;;5064706;28;20184;-90
2020/12/06 04:48:21;;;;;;;24.27;20.87;;;4.60;93.40;;;;;;5046386;28;20180;-89
2020/12/06 04:50:53;;;;;;;24.47;19.53;;;4.60;93.20;;;;;;5064076;28;20570;-90
2020/12/06 04:53:22;;;;;;;23.73;20.33;;;4.60;93.30;;;;;;5064719;28;20207;-89
2020/12/06 04:55:51;;;;;;;24.17;19.40;;;4.60;93.20;;;;;;5064974;28;20218;-89
2020/12/06 04:58:25;;;;;;;27.23;21.90;;;4.60;93.50;;;;;;5046532;28;20192;-89
2020/12/06 05:00:51;;;;;;;26.83;20.70;;;4.70;93.10;;;;;;5063276;28;20259;-89
2020/12/06 05:03:21;;;;;;;26.60;22.63;;;4.70;93.80;;;;;;5059400;28;20204;-89
2020/12/06 05:05:49;;;;;;;26.20;21.00;;;4.60;92.70;;;;;;5060011;28;20273;-89
2020/12/06 05:08:14;;;;;;;24.83;19.93;;;4.40;94.40;;;;;;5060155;28;20172;-89
2020/12/06 05:10:42;;;;;;;27.27;21.87;;;4.40;94.80;;;;;;5059845;28;20713;-89
2020/12/06 05:13:08;;;;;;;24.10;20.07;;;4.40;94.70;;;;;;5059755;28;20184;-89
2020/12/06 05:15:35;;;;;;;25.87;21.87;;;4.40;95.40;;;;;;5060036;28;20189;-89
2020/12/06 05:18:02;;;;;;;24.13;21.03;;;4.30;95.90;;;;;;5060250;28;20191;-89
2020/12/06 05:20:29;;;;;;;24.00;20.27;;;4.20;96.40;;;;;;5060921;28;20235;-89
2020/12/06 05:22:55;;;;;;;23.70;20.17;;;4.30;96.10;;;;;;5060792;28;20207;-89
2020/12/06 05:25:21;;;;;;;21.10;18.13;;;4.30;95.90;;;;;;5026776;28;20188;-89
2020/12/06 05:27:47;;;;;;;21.33;17.90;;;4.50;94.90;;;;;;5062743;28;20191;-89
2020/12/06 05:30:13;;;;;;;23.50;17.77;;;4.60;94.10;;;;;;5061303;28;20214;-89
2020/12/06 05:32:39;;;;;;;21.03;16.93;;;4.60;92.90;;;;;;5043112;28;20203;-89
2020/12/06 05:35:06;;;;;;;19.50;17.20;;;4.60;93.00;;;;;;5043081;28;20180;-89
2020/12/06 05:37:35;;;;;;;18.50;16.50;;;4.50;93.60;;;;;;5060577;28;20180;-90
2020/12/06 05:40:05;;;;;;;19.70;16.93;;;4.50;94.50;;;;;;5026557;28;20188;-89
2020/12/06 05:42:36;;;;;;;20.70;16.40;;;4.60;93.60;;;;;;5026994;28;20176;-90
2020/12/06 05:45:02;;;;;;;20.70;16.97;;;4.70;93.30;;;;;;5060633;28;20262;-89
2020/12/06 05:47:28;;;;;;;18.87;16.83;;;4.70;93.70;;;;;;5061252;28;20181;-89
2020/12/06 05:49:58;;;;;;;17.13;14.93;;;4.60;94.40;;;;;;5060742;28;20183;-89
2020/12/06 05:52:25;;;;;;;19.73;16.97;;;4.60;93.70;;;;;;5060855;28;20200;-89
2020/12/06 05:54:50;;;;;;;17.83;15.80;;;4.70;93.20;;;;;;5060669;28;20183;-90
2020/12/06 05:57:16;;;;;;;17.90;15.60;;;4.70;93.10;;;;;;5060728;28;20172;-89
2020/12/06 05:59:42;;;;;;;16.37;14.63;;;4.70;92.80;;;;;;5043324;28;20176;-89
2020/12/06 06:02:08;;;;;;;21.83;18.53;;;4.80;92.30;;;;;;5043247;28;20209;-89
2020/12/06 06:04:39;;;;;;;17.27;15.37;;;4.60;93.20;;;;;;5042541;28;20215;-89
2020/12/06 06:07:18;;;;;;;20.13;16.93;;;4.40;95.00;;;;;;5060652;28;20182;-89
2020/12/06 06:09:48;;;;;;;17.23;15.43;;;4.30;96.40;;;;;;5060055;28;20194;-89
2020/12/06 06:12:33;;;;;;;18.30;14.57;;;4.40;95.60;;;;;;5042261;28;20207;-89
2020/12/06 06:15:04;;;;;;;18.87;15.13;;;4.60;94.40;;;;;;5059011;28;20978;-89
2020/12/06 06:17:32;;;;;;;15.97;14.13;;;4.70;93.60;;;;;;5060395;28;20231;-90
2020/12/06 06:19:58;;;;;;;17.00;14.50;;;4.80;92.60;;;;;;5025769;28;20196;-90
2020/12/06 06:22:29;;;;;;;16.17;14.47;;;4.60;93.80;;;;;;5025703;28;20211;-89
2020/12/06 06:24:56;;;;;;;16.77;14.97;;;4.60;93.20;;;;;;5059463;28;20196;-89
2020/12/06 06:27:22;;;;;;;18.53;16.03;;;4.60;94.10;;;;;;5042052;28;20209;-89
2020/12/06 06:29:49;;;;;;;16.73;14.93;;;4.50;94.50;;;;;;5059487;28;20267;-89
2020/12/06 06:32:15;;;;;;;16.80;14.97;;;4.50;95.20;;;;;;5060283;28;20192;-89
2020/12/06 06:34:42;;;;;;;15.80;14.13;;;4.60;93.60;;;;;;5061330;28;20192;-89
2020/12/06 06:37:16;;;;;;;17.57;14.27;;;4.70;93.60;;;;;;5043026;28;20743;-90
2020/12/06 06:39:43;;;;;;;15.47;13.87;;;4.80;92.60;;;;;;5059872;28;20172;-90
2020/12/06 06:42:12;;;;;;;16.27;14.53;;;4.80;92.20;;;;;;5059259;28;20203;-90
2020/12/06 06:44:45;;;;;;;19.57;16.27;;;4.90;91.60;;;;;;5041680;28;20275;-89
2020/12/06 06:47:13;;;;;;;17.63;15.00;;;4.70;92.30;;;;;;5043341;28;20275;-89
2020/12/06 06:49:59;;;;;;;17.13;14.57;;;4.70;92.60;;;;;;5058741;28;20171;-89
2020/12/06 06:52:27;;;;;;;17.07;14.10;;;4.70;92.70;;;;;;5071094;28;20230;-90
2020/12/06 06:54:55;;;;;;;20.70;17.50;;;4.80;92.80;;;;;;5026348;28;20283;-90
2020/12/06 06:57:22;;;;;;;16.20;14.03;;;4.80;92.30;;;;;;5068944;28;20236;-89
2020/12/06 06:59:49;;;;;;;18.50;16.20;;;4.80;92.90;;;;;;5060822;28;20176;-89
2020/12/06 07:02:36;;;;;;;16.93;14.73;;;4.70;92.80;;;;;;5075608;28;20204;-88
2020/12/06 07:05:05;;;;;;;23.33;17.83;;;4.60;94.00;;;;;;5039014;28;20670;-88
2020/12/06 07:07:39;;;;;;;20.53;16.43;;;4.30;96.30;;;;;;5059418;28;20237;-87
2020/12/06 07:10:06;;;;;;;21.13;17.40;;;4.20;97.50;;;;;;5058628;28;20176;-86
2020/12/06 07:12:37;;;;;;;21.37;17.67;;;4.10;98.50;;;;;;5038825;28;20268;-86
2020/12/06 07:15:06;;;;;;;20.73;18.23;;;4.40;96.60;;;;;;5041359;28;20176;-88
2020/12/06 07:17:32;;;;;;;19.63;17.37;;;4.30;96.80;;;;;;5058595;28;20187;-85
2020/12/06 07:19:58;;;;;;;22.30;17.17;;;4.50;96.00;;;;;;5058479;28;20201;-84
2020/12/06 07:22:24;;;;;;;22.83;18.67;;;4.30;96.80;;;;;;5059172;28;20239;-86
2020/12/06 07:24:50;;;;;;;22.47;18.07;;;4.40;96.40;;;;;;5058894;28;20183;-87
2020/12/06 07:27:16;;;;;;;24.03;19.17;;;4.50;95.50;;;;;;5058889;28;20215;-88
2020/12/06 07:29:41;;;;;;;23.40;18.90;;;4.50;95.70;;;;;;5059170;28;20203;-88
2020/12/06 07:32:09;;;;;;;21.83;18.07;;;4.40;96.20;;;;;;5058664;28;20260;-88
2020/12/06 07:34:35;;;;;;;22.13;18.60;;;4.40;95.60;;;;;;5041737;28;20208;-87
2020/12/06 07:37:01;;;;;;;24.97;18.40;;;4.30;97.20;;;;;;5043790;28;20204;-88
2020/12/06 07:39:27;;;;;;;26.33;21.17;;;4.30;97.20;;;;;;5043090;28;20178;-87
2020/12/06 07:41:52;;;;;;;26.13;19.83;;;4.30;97.00;;;;;;5042900;28;20287;-87
2020/12/06 07:44:18;;;;;;;23.60;18.40;;;4.40;96.60;;;;;;5060980;28;20631;-88
2020/12/06 07:46:44;;;;;;;23.30;18.70;;;4.30;96.80;;;;;;5043026;28;20215;-87
2020/12/06 07:49:10;;;;;;;24.93;17.67;;;4.40;96.00;;;;;;5043005;28;20173;-87
2020/12/06 07:51:38;;;;;;;23.43;18.53;;;4.40;95.90;;;;;;5062920;28;20823;-87
2020/12/06 07:54:04;;;;;;;26.23;19.90;;;4.40;96.10;;;;;;5027819;28;20180;-87
2020/12/06 07:56:30;;;;;;;24.77;18.37;;;4.40;96.50;;;;;;5061362;28;20188;-87
2020/12/06 07:59:13;;;;;;;27.33;19.43;;;4.30;97.00;;;;;;5060768;28;20177;-87
2020/12/06 08:01:41;;;;;;;26.33;19.53;;;4.30;97.10;;;;;;5060562;28;20196;-88
2020/12/06 08:04:11;;;;;;;23.57;18.23;;;4.20;97.50;;;;;;5044800;28;20208;-87
2020/12/06 08:06:39;;;;;;;24.73;18.03;;;4.10;99.00;;;;;;5063254;28;20203;-87
2020/12/06 08:09:06;;;;;;;23.17;17.53;;;4.20;98.10;;;;;;5063753;28;20191;-87
2020/12/06 08:11:38;;;;;;;22.50;17.10;;;4.20;98.50;;;;;;5044940;28;20192;-87
2020/12/06 08:14:04;;;;;;;24.13;18.07;;;4.10;99.40;;;;;;5063344;28;20231;-87
2020/12/06 08:16:30;;;;;;;24.83;17.53;;;4.30;99.20;;;;;;5048807;28;20196;-87
2020/12/06 08:19:03;;;;;;;23.07;18.10;;;4.30;98.10;;;;;;5040133;28;20544;-87
2020/12/06 08:21:43;;;;;;;25.00;18.40;;;4.40;97.90;;;;;;5043590;28;20211;-88
2020/12/06 08:24:22;;;;;;;23.50;17.57;;;4.20;98.30;;;;;;5051708;28;20201;-88
2020/12/06 08:26:49;;;;;;;18.83;14.73;;;4.10;99.80;;;;;;5057642;28;20184;-88
2020/12/06 08:29:16;;;;;;;20.60;15.87;;;4.20;99.90;;;;;;5043528;28;20191;-88
2020/12/06 08:31:42;;;;;;;21.83;17.10;;;4.20;98.70;;;;;;5037653;28;20205;-88
2020/12/06 08:34:10;;;;;;;21.23;17.63;;;4.30;99.20;;;;;;5042143;28;20177;-88
2020/12/06 08:36:36;;;;;;;20.97;16.80;;;4.30;99.30;;;;;;5061921;28;20179;-88
2020/12/06 08:39:13;;;;;;;20.27;17.83;;;4.50;97.70;;;;;;5047805;28;20184;-88
2020/12/06 08:41:39;;;;;;;19.90;16.70;;;4.40;98.30;;;;;;5066072;28;20211;-88
2020/12/06 08:44:05;;;;;;;20.50;16.23;;;4.40;97.70;;;;;;5072657;28;20203;-88
2020/12/06 08:46:31;;;;;;;18.47;15.73;;;4.30;98.50;;;;;;5068521;28;20222;-88
2020/12/06 08:49:02;;;;;;;19.10;16.10;;;4.40;97.90;;;;;;5060770;28;20219;-88
2020/12/06 08:51:29;;;;;;;20.37;16.13;;;4.60;96.70;;;;;;5066638;28;20204;-88
2020/12/06 08:53:56;;;;;;;18.87;16.13;;;4.70;96.50;;;;;;5067675;28;20196;-88
2020/12/06 08:56:38;;;;;;;17.00;14.17;;;4.80;96.10;;;;;;5052061;28;20257;-88
2020/12/06 08:59:16;;;;;;;17.73;15.67;;;4.70;96.30;;;;;;5065489;28;20225;-88
2020/12/06 09:01:49;;;;;;;17.63;14.43;;;4.60;97.30;;;;;;5066317;28;20203;-88
2020/12/06 09:04:16;;;;;;;19.83;15.10;;;4.70;96.50;;;;;;5067732;28;20200;-88
2020/12/06 09:06:42;;;;;;;18.83;15.37;;;4.70;96.90;;;;;;5066774;28;20534;-90
2020/12/06 09:09:08;;;;;;;18.07;14.80;;;4.70;97.20;;;;;;5078054;28;20176;-89
2020/12/06 09:11:34;;;;;;;17.07;15.10;;;4.70;96.60;;;;;;5070314;28;20203;-88
2020/12/06 09:14:00;;;;;;;16.73;14.40;;;4.60;97.50;;;;;;5086426;28;20528;-88
2020/12/06 09:16:26;;;;;;;19.40;15.13;;;4.50;97.30;;;;;;5068628;28;20191;-88
2020/12/06 09:18:52;;;;;;;15.43;13.17;;;4.50;98.60;;;;;;5050366;28;20200;-88
2020/12/06 09:21:17;;;;;;;17.90;14.57;;;4.60;97.50;;;;;;5067211;28;20208;-88
2020/12/06 09:23:45;;;;;;;17.23;13.47;;;4.70;96.90;;;;;;5071165;28;20188;-89
2020/12/06 09:26:11;;;;;;;18.77;14.90;;;4.70;96.30;;;;;;5067639;28;20189;-88
2020/12/06 09:28:36;;;;;;;18.63;15.27;;;4.60;97.80;;;;;;5049121;28;20196;-89
2020/12/06 09:31:02;;;;;;;16.13;13.80;;;4.40;99.50;;;;;;5059936;28;20212;-88
2020/12/06 09:33:28;;;;;;;16.13;13.33;;;4.30;99.90;;;;;;5052981;28;20189;-88
2020/12/06 09:35:54;;;;;;;17.17;12.93;;;4.30;99.90;;;;;;5045902;28;20208;-88
2020/12/06 09:38:20;;;;;;;15.00;12.87;;;4.30;99.90;;;;;;5046346;28;20172;-89
2020/12/06 09:40:46;;;;;;;15.63;12.97;;;4.50;99.90;;;;;;5079411;28;20259;-89
2020/12/06 09:43:11;;;;;;;13.30;11.77;;;4.40;99.60;;;;;;5069763;28;20200;-88
2020/12/06 09:45:40;;;;;;;13.50;11.37;;;4.60;99.50;;;;;;5054417;28;20209;-88
2020/12/06 09:48:06;;;;;;;12.20;10.97;;;4.80;97.30;;;;;;5025526;28;20208;-88
2020/12/06 09:50:32;;;;;;;12.17;10.87;;;4.80;96.60;;;;;;5063246;28;20219;-89
2020/12/06 09:52:57;;;;;;;12.53;11.07;;;4.80;96.30;;;;;;5046705;28;20641;-89
2020/12/06 09:55:23;;;;;;;12.77;10.63;;;4.60;97.60;;;;;;5043707;28;20185;-89
2020/12/06 09:57:49;;;;;;;13.53;11.30;;;4.60;97.90;;;;;;5049486;28;20234;-89
2020/12/06 10:00:15;;;;;;;12.80;10.33;;;4.60;98.80;;;;;;5052753;28;20190;-89
2020/12/06 10:02:41;;;;;;;11.23;10.13;;;4.80;98.00;;;;;;5071836;28;20549;-89
2020/12/06 10:05:06;;;;;;;11.00;9.63;;;4.80;96.60;;;;;;5064004;28;20270;-89
2020/12/06 10:07:32;;;;;;;12.20;9.83;;;4.80;96.30;;;;;;5065846;28;20203;-89
2020/12/06 10:09:58;;;;;;;11.53;10.33;;;4.60;97.10;;;;;;5061411;28;20187;-89
2020/12/06 10:12:24;;;;;;;13.93;11.53;;;4.50;98.10;;;;;;5050942;28;20201;-89
2020/12/06 10:14:49;;;;;;;11.93;10.53;;;4.50;99.70;;;;;;5065550;28;20185;-89
2020/12/06 10:17:15;;;;;;;12.07;10.70;;;4.60;97.00;;;;;;5063802;28;20192;-89
2020/12/06 10:19:41;;;;;;;11.77;10.57;;;4.70;96.20;;;;;;5075494;28;20262;-88
2020/12/06 10:22:07;;;;;;;12.63;11.33;;;4.60;98.10;;;;;;5057780;28;20199;-89
2020/12/06 10:24:32;;;;;;;14.30;12.40;;;4.40;98.60;;;;;;5046350;28;20208;-89
2020/12/06 10:26:58;;;;;;;21.30;16.10;;;4.50;98.80;;;;;;5046051;28;20575;-89
2020/12/06 10:29:25;;;;;;;15.10;13.50;;;4.40;98.60;;;;;;5038255;28;20581;-89
2020/12/06 10:31:52;;;;;;;14.67;13.17;;;4.60;98.90;;;;;;5055998;28;20208;-88
2020/12/06 10:34:18;;;;;;;13.50;11.60;;;4.70;98.00;;;;;;5069758;28;20187;-89
2020/12/06 10:36:52;;;;;;;13.00;11.63;;;4.70;98.60;;;;;;5080137;28;20171;-89
2020/12/06 10:39:22;;;;;;;13.80;12.23;;;4.80;96.60;;;;;;5068287;28;20172;-89
2020/12/06 10:41:51;;;;;;;14.20;12.70;;;4.90;96.10;;;;;;5033217;28;20223;-89
2020/12/06 10:44:17;;;;;;;15.53;12.60;;;4.90;96.90;;;;;;5064134;28;20196;-89
2020/12/06 10:46:44;;;;;;;14.33;12.50;;;4.80;97.30;;;;;;5055892;28;20199;-89
2020/12/06 10:49:11;;;;;;;15.60;13.10;;;5.00;96.00;;;;;;5061622;28;20238;-89
2020/12/06 10:51:41;;;;;;;14.00;12.60;;;4.90;97.70;;;;;;5071679;28;20203;-89
2020/12/06 10:54:08;;;;;;;15.57;13.13;;;4.90;97.20;;;;;;5058811;28;20187;-89
2020/12/06 10:56:39;;;;;;;15.80;13.07;;;4.70;97.40;;;;;;5069582;28;20200;-90
2020/12/06 10:59:05;;;;;;;14.50;12.83;;;4.80;97.10;;;;;;5063506;28;20632;-89
2020/12/06 11:01:31;;;;;;;25.10;21.07;;;4.80;97.10;;;;;;5064306;28;20235;-89
2020/12/06 11:03:58;;;;;;;14.37;12.77;;;4.80;97.90;;;;;;5070737;28;20218;-88
2020/12/06 11:06:24;;;;;;;15.37;13.13;;;4.80;98.30;;;;;;5063855;28;20185;-88
2020/12/06 11:08:51;;;;;;;15.20;13.60;;;4.80;98.70;;;;;;5042532;28;20192;-89
2020/12/06 11:11:18;;;;;;;16.63;14.57;;;4.70;99.90;;;;;;5057792;28;20192;-89
2020/12/06 11:13:43;;;;;;;15.93;13.63;;;4.80;99.20;;;;;;5068297;28;20191;-88
2020/12/06 11:16:09;;;;;;;15.20;13.57;;;4.80;98.10;;;;;;5078790;28;20182;-89
2020/12/06 11:18:35;;;;;;;15.03;13.43;;;4.80;98.80;;;;;;5053731;28;20289;-89
2020/12/06 11:21:02;;;;;;;17.00;14.40;;;4.80;97.90;;;;;;5039994;28;20240;-88
2020/12/06 11:23:27;;;;;;;16.50;14.70;;;4.80;98.40;;;;;;5071766;28;20211;-89
2020/12/06 11:25:53;;;;;;;18.90;15.17;;;4.70;99.60;;;;;;5078224;28;20252;-90
2020/12/06 11:28:20;;;;;;;20.47;16.97;;;4.70;99.90;;;;;;5078835;28;20190;-90
2020/12/06 11:30:45;;;;;;;18.87;16.13;;;4.80;99.20;;;;;;5074129;28;20208;-89
2020/12/06 11:33:11;;;;;;;21.33;18.37;;;4.80;99.70;;;;;;5062415;28;20276;-89
2020/12/06 11:35:37;;;;;;;20.77;17.07;;;4.80;97.60;;;;;;5039433;28;20184;-89
2020/12/06 11:38:03;;;;;;;25.07;19.73;;;5.00;97.10;;;;;;5058448;28;20635;-89
2020/12/06 11:40:29;;;;;;;22.03;17.90;;;5.00;97.80;;;;;;5064573;28;20215;-89
2020/12/06 11:42:54;;;;;;;23.83;18.63;;;5.00;97.00;;;;;;5039715;28;20214;-89
2020/12/06 11:45:20;;;;;;;22.50;18.67;;;5.00;96.80;;;;;;5051475;28;20612;-89
2020/12/06 11:47:46;;;;;;;24.80;18.87;;;4.80;97.80;;;;;;5053091;28;20203;-89
2020/12/06 11:50:11;;;;;;;25.50;20.73;;;4.70;98.00;;;;;;5058516;28;20189;-89
2020/12/06 11:52:37;;;;;;;25.27;19.23;;;4.70;99.50;;;;;;5056975;28;20180;-89
2020/12/06 11:55:03;;;;;;;26.70;20.13;;;4.70;99.90;;;;;;5042307;28;20184;-90
2020/12/06 11:57:29;;;;;;;26.80;20.87;;;4.70;98.90;;;;;;5060616;28;20296;-89
2020/12/06 11:59:54;;;;;;;25.77;21.60;;;4.70;99.50;;;;;;5061200;28;20193;-89
2020/12/06 12:02:20;;;;;;;28.60;20.97;;;4.60;99.90;;;;;;5044546;28;20672;-89
2020/12/06 12:04:46;;;;;;;28.83;21.53;;;4.80;99.90;;;;;;5044022;28;20227;-89
2020/12/06 12:07:12;;;;;;;27.40;20.90;;;4.80;99.90;;;;;;5073148;28;20554;-88
2020/12/06 12:09:38;;;;;;;29.47;21.90;;;4.70;99.30;;;;;;5076511;28;20176;-88
2020/12/06 12:12:03;;;;;;;33.13;23.77;;;4.80;99.50;;;;;;5093808;28;20267;-89
2020/12/06 12:14:29;;;;;;;31.13;23.20;;;4.70;98.80;;;;;;5084935;28;20180;-89
2020/12/06 12:16:55;;;;;;;30.67;22.13;;;4.70;99.60;;;;;;5071751;28;20192;-89
2020/12/06 12:19:21;;;;;;;30.10;22.77;;;4.70;98.20;;;;;;5073974;28;20192;-88
2020/12/06 12:21:46;;;;;;;32.47;24.40;;;4.60;99.60;;;;;;5063136;28;20231;-89
2020/12/06 12:24:12;;;;;;;30.50;23.10;;;4.70;98.80;;;;;;5077807;28;20216;-88
2020/12/06 12:26:38;;;;;;;30.03;22.53;;;4.70;98.60;;;;;;5069082;28;20187;-88
2020/12/06 12:29:03;;;;;;;31.97;23.83;;;4.90;99.60;;;;;;5063005;28;20192;-89
2020/12/06 12:31:31;;;;;;;31.47;22.77;;;4.80;97.90;;;;;;5068341;28;20211;-88
2020/12/06 12:33:58;;;;;;;29.20;23.47;;;4.90;97.90;;;;;;5081423;28;20180;-88
2020/12/06 12:36:23;;;;;;;30.27;23.17;;;5.00;98.70;;;;;;5068638;28;20195;-89